createdAt,value
2022-07-25T00:01:12.070Z,3.67
2022-07-25T00:03:39.556Z,3.90
2022-07-25T00:06:07.412Z,3.90
2022-07-25T00:08:40.915Z,3.90
2022-07-25T00:11:08.175Z,3.55
2022-07-25T00:13:35.564Z,4.05
2022-07-25T00:16:03.006Z,4.13
2022-07-25T00:18:30.338Z,4.15
2022-07-25T00:20:57.668Z,4.57
2022-07-25T00:23:24.986Z,4.35
2022-07-25T00:25:52.337Z,4.32
2022-07-25T00:28:19.843Z,4.00
2022-07-25T00:30:47.916Z,4.38
2022-07-25T00:33:15.259Z,4.53
2022-07-25T00:35:42.536Z,4.10
2022-07-25T00:38:09.773Z,4.40
2022-07-25T00:40:37.491Z,3.87
2022-07-25T00:43:04.892Z,4.40
2022-07-25T00:45:32.573Z,4.20
2022-07-25T00:47:59.818Z,4.25
2022-07-25T00:50:27.210Z,4.35
2022-07-25T00:52:54.550Z,4.13
2022-07-25T00:55:22.298Z,4.30
2022-07-25T00:57:49.576Z,4.32
2022-07-25T01:00:17.704Z,4.55
2022-07-25T01:02:45.527Z,4.35
2022-07-25T01:05:13.376Z,3.90
2022-07-25T01:07:40.845Z,4.15
2022-07-25T01:10:08.949Z,4.50
2022-07-25T01:12:45.880Z,4.50
2022-07-25T01:15:13.180Z,4.85
2022-07-25T01:17:40.435Z,4.73
2022-07-25T01:20:13.926Z,4.38
2022-07-25T01:22:41.253Z,5.10
2022-07-25T01:25:08.683Z,4.88
2022-07-25T01:27:35.996Z,4.85
2022-07-25T01:30:04.685Z,4.60
2022-07-25T01:32:31.954Z,4.43
2022-07-25T01:34:59.199Z,5.10
2022-07-25T01:37:26.476Z,5.15
2022-07-25T01:39:53.745Z,5.13
2022-07-25T01:42:21.046Z,4.90
2022-07-25T01:44:48.334Z,4.68
2022-07-25T01:47:17.327Z,5.10
2022-07-25T01:49:45.050Z,5.22
2022-07-25T01:52:13.085Z,5.20
2022-07-25T01:54:40.596Z,5.40
2022-07-25T01:57:11.468Z,5.20
2022-07-25T01:59:42.735Z,5.18
2022-07-25T02:02:10.399Z,5.57
2022-07-25T02:04:37.874Z,5.00
2022-07-25T02:07:06.168Z,5.67
2022-07-25T02:09:33.608Z,4.68
2022-07-25T02:12:01.011Z,4.82
2022-07-25T02:14:28.282Z,5.10
2022-07-25T02:16:55.622Z,5.03
2022-07-25T02:19:22.942Z,4.57
2022-07-25T02:21:50.269Z,5.18
2022-07-25T02:24:17.527Z,4.30
2022-07-25T02:26:44.796Z,5.50
2022-07-25T02:29:12.222Z,4.85
2022-07-25T02:31:39.500Z,4.50
2022-07-25T02:34:07.255Z,4.82
2022-07-25T02:36:34.974Z,5.18
2022-07-25T02:39:02.385Z,4.88
2022-07-25T02:41:29.647Z,5.28
2022-07-25T02:43:56.941Z,5.20
2022-07-25T02:46:24.273Z,5.60
2022-07-25T02:48:51.684Z,5.30
2022-07-25T02:51:18.958Z,5.47
2022-07-25T02:53:57.120Z,5.97
2022-07-25T02:56:25.720Z,6.10
2022-07-25T02:58:53.046Z,5.53
2022-07-25T03:01:20.383Z,6.30
2022-07-25T03:03:47.789Z,6.40
2022-07-25T03:06:15.186Z,5.97
2022-07-25T03:08:42.505Z,6.17
2022-07-25T03:11:09.779Z,6.65
2022-07-25T03:13:37.064Z,5.75
2022-07-25T03:16:04.389Z,6.32
2022-07-25T03:18:31.679Z,6.47
2022-07-25T03:20:58.965Z,6.00
2022-07-25T03:23:28.139Z,6.43
2022-07-25T03:25:55.700Z,6.88
2022-07-25T03:28:23.197Z,6.82
2022-07-25T03:30:50.430Z,6.68
2022-07-25T03:33:17.703Z,6.77
2022-07-25T03:35:45.269Z,7.25
2022-07-25T03:38:12.563Z,7.25
2022-07-25T03:40:39.836Z,7.65
2022-07-25T03:43:07.178Z,7.25
2022-07-25T03:45:34.527Z,7.73
2022-07-25T03:48:02.161Z,7.47
2022-07-25T03:50:29.446Z,6.60
2022-07-25T03:52:56.744Z,7.25
2022-07-25T03:55:24.110Z,7.30
2022-07-25T03:57:51.530Z,7.20
2022-07-25T04:00:18.806Z,7.72
2022-07-25T04:02:46.098Z,7.40
2022-07-25T04:05:13.420Z,7.18
2022-07-25T04:07:40.762Z,7.47
2022-07-25T04:10:08.485Z,7.33
2022-07-25T04:12:35.804Z,7.15
2022-07-25T04:15:03.070Z,7.72
2022-07-25T04:17:30.338Z,7.43
2022-07-25T04:19:57.846Z,7.20
2022-07-25T04:22:25.088Z,7.40
2022-07-25T04:24:52.386Z,7.50
2022-07-25T04:27:19.713Z,7.30
2022-07-25T04:29:46.972Z,7.05
2022-07-25T04:32:14.822Z,6.68
2022-07-25T04:34:43.740Z,6.57
2022-07-25T04:37:11.061Z,6.70
2022-07-25T04:39:38.377Z,6.22
2022-07-25T04:42:05.809Z,6.90
2022-07-25T04:44:33.084Z,6.82
2022-07-25T04:47:00.272Z,6.73
2022-07-25T04:49:27.583Z,7.22
2022-07-25T04:51:54.818Z,6.88
2022-07-25T04:54:22.134Z,8.23
2022-07-25T04:56:49.396Z,8.75
2022-07-25T04:59:17.271Z,8.30
2022-07-25T05:01:44.556Z,8.55
2022-07-25T05:04:11.855Z,8.65
2022-07-25T05:06:39.097Z,9.13
2022-07-25T05:09:06.382Z,8.85
2022-07-25T05:11:33.676Z,9.70
2022-07-25T05:14:00.987Z,10.27
2022-07-25T05:16:28.368Z,10.43
2022-07-25T05:18:55.719Z,9.95
2022-07-25T05:21:24.165Z,9.88
2022-07-25T05:23:51.563Z,10.13
2022-07-25T05:26:18.839Z,10.23
2022-07-25T05:28:46.069Z,10.25
2022-07-25T05:31:13.421Z,10.90
2022-07-25T05:33:40.722Z,11.77
2022-07-25T05:36:09.067Z,11.17
2022-07-25T05:38:36.466Z,11.02
2022-07-25T05:41:03.662Z,11.30
2022-07-25T05:43:30.962Z,10.65
2022-07-25T05:46:05.096Z,11.10
2022-07-25T05:48:32.848Z,10.80
2022-07-25T05:51:00.429Z,10.65
2022-07-25T05:53:27.763Z,10.15
2022-07-25T05:55:55.219Z,10.80
2022-07-25T05:58:26.228Z,10.60
2022-07-25T06:00:56.989Z,10.73
2022-07-25T06:03:24.393Z,10.70
2022-07-25T06:05:51.735Z,9.55
2022-07-25T06:08:18.990Z,8.43
2022-07-25T06:10:46.293Z,7.90
2022-07-25T06:13:13.694Z,7.63
2022-07-25T06:15:41.570Z,6.97
2022-07-25T06:18:08.930Z,5.45
2022-07-25T06:20:36.222Z,5.40
2022-07-25T06:23:04.923Z,5.78
2022-07-25T06:25:32.271Z,4.60
2022-07-25T06:28:01.019Z,4.95
2022-07-25T06:30:28.674Z,4.10
2022-07-25T06:32:55.979Z,3.67
2022-07-25T06:35:23.651Z,3.10
2022-07-25T06:37:50.998Z,3.33
2022-07-25T06:40:18.269Z,2.70
2022-07-25T06:42:46.452Z,2.42
2022-07-25T06:45:14.263Z,2.40
2022-07-25T06:47:42.315Z,2.42
2022-07-25T06:50:11.260Z,2.47
2022-07-25T06:52:39.140Z,2.33
2022-07-25T06:55:06.953Z,2.15
2022-07-25T06:57:34.314Z,1.75
2022-07-25T07:00:01.615Z,1.80
2022-07-25T07:02:28.929Z,1.97
2022-07-25T07:04:56.180Z,1.63
2022-07-25T07:07:23.584Z,1.50
2022-07-25T07:09:50.788Z,1.60
2022-07-25T07:12:18.006Z,1.83
2022-07-25T07:14:45.455Z,1.80
2022-07-25T07:17:12.841Z,1.52
2022-07-25T07:19:44.467Z,1.80
2022-07-25T07:22:11.859Z,1.48
2022-07-25T07:24:45.080Z,1.52
2022-07-25T07:27:12.701Z,1.30
2022-07-25T07:29:40.015Z,1.60
2022-07-25T07:32:07.482Z,1.75
2022-07-25T07:34:34.838Z,1.63
2022-07-25T07:37:02.589Z,1.60
2022-07-25T07:39:29.913Z,1.60
2022-07-25T07:41:57.240Z,1.83
2022-07-25T07:44:24.498Z,1.70
2022-07-25T07:46:51.917Z,1.60
2022-07-25T07:49:19.434Z,1.35
2022-07-25T07:51:46.718Z,1.27
2022-07-25T07:54:32.817Z,1.27
2022-07-25T07:57:00.114Z,1.00
2022-07-25T07:59:27.335Z,1.67
2022-07-25T08:01:54.670Z,0.98
2022-07-25T08:04:22.028Z,1.30
2022-07-25T08:06:49.292Z,1.50
2022-07-25T08:09:16.615Z,1.55
2022-07-25T08:11:43.936Z,1.30
2022-07-25T08:14:11.303Z,1.70
2022-07-25T08:16:38.751Z,1.37
2022-07-25T08:19:06.116Z,1.13
2022-07-25T08:21:33.431Z,1.30
2022-07-25T08:24:00.801Z,1.40
2022-07-25T08:26:28.282Z,1.50
2022-07-25T08:29:17.527Z,1.80
2022-07-25T08:31:43.307Z,1.83
2022-07-25T08:34:10.649Z,1.60
2022-07-25T08:36:41.425Z,1.70
2022-07-25T08:39:08.724Z,1.40
2022-07-25T08:41:36.080Z,1.57
2022-07-25T08:44:03.855Z,1.15
2022-07-25T08:46:31.711Z,1.52
2022-07-25T08:48:59.831Z,1.98
2022-07-25T08:51:27.785Z,1.40
2022-07-25T08:53:55.516Z,1.60
2022-07-25T08:56:23.025Z,1.50
2022-07-25T08:58:50.907Z,1.80
2022-07-25T09:01:20.340Z,1.65
2022-07-25T09:03:47.837Z,1.40
2022-07-25T09:06:22.374Z,1.70
2022-07-25T09:08:56.823Z,1.17
2022-07-25T09:11:31.385Z,1.70
2022-07-25T09:13:59.741Z,1.50
2022-07-25T09:16:30.962Z,1.88
2022-07-25T09:19:11.616Z,1.60
2022-07-25T09:21:39.980Z,1.73
2022-07-25T09:24:10.483Z,1.35
2022-07-25T09:26:48.779Z,1.48
2022-07-25T09:29:17.173Z,1.50
2022-07-25T09:31:44.552Z,1.57
2022-07-25T09:34:12.848Z,1.85
2022-07-25T09:36:55.711Z,1.50
2022-07-25T09:39:32.975Z,1.48
2022-07-25T09:42:00.311Z,1.40
2022-07-25T09:44:30.406Z,1.40
2022-07-25T09:47:01.867Z,1.60
2022-07-25T09:49:42.482Z,1.67
2022-07-25T09:52:10.404Z,1.73
2022-07-25T09:54:38.420Z,1.95
2022-07-25T09:57:05.841Z,1.50
2022-07-25T09:59:37.153Z,1.70
2022-07-25T10:02:10.267Z,1.70
2022-07-25T10:04:57.940Z,1.67
2022-07-25T10:07:29.535Z,1.50
2022-07-25T10:10:00.219Z,1.47
2022-07-25T10:12:27.493Z,1.60
2022-07-25T10:15:11.437Z,1.30
2022-07-25T10:17:39.477Z,1.60
2022-07-25T10:20:08.134Z,1.50
2022-07-25T10:22:55.265Z,1.20
2022-07-25T10:25:23.436Z,1.40
2022-07-25T10:27:52.984Z,1.30
2022-07-25T10:30:24.822Z,1.42
2022-07-25T10:32:59.041Z,1.70
2022-07-25T10:35:29.751Z,1.83
2022-07-25T10:37:58.215Z,1.80
2022-07-25T10:40:30.329Z,1.50
2022-07-25T10:42:58.879Z,1.77
2022-07-25T10:45:27.934Z,1.95
2022-07-25T10:47:55.945Z,1.50
2022-07-25T10:50:40.337Z,1.95
2022-07-25T10:53:10.814Z,1.88
2022-07-25T10:55:38.157Z,2.10
2022-07-25T10:58:18.026Z,2.30
2022-07-25T11:00:45.646Z,2.00
2022-07-25T11:03:17.925Z,1.90
2022-07-25T11:05:46.819Z,2.15
2022-07-25T11:08:22.768Z,2.58
2022-07-25T11:10:53.765Z,2.17
2022-07-25T11:13:23.455Z,2.17
2022-07-25T11:15:50.879Z,2.17
2022-07-25T11:18:18.599Z,2.17
2022-07-25T11:20:46.020Z,2.25
2022-07-25T11:23:13.285Z,2.80
2022-07-25T11:25:42.220Z,2.10
2022-07-25T11:28:09.521Z,2.35
2022-07-25T11:30:36.877Z,2.40
2022-07-25T11:33:05.117Z,2.33
2022-07-25T11:35:33.698Z,2.35
2022-07-25T11:38:02.568Z,1.73
2022-07-25T11:40:32.645Z,2.05
2022-07-25T11:43:00.201Z,1.98
2022-07-25T11:45:33.564Z,2.65
2022-07-25T11:48:14.851Z,2.30
2022-07-25T11:50:43.163Z,2.07
2022-07-25T11:53:11.612Z,1.95
2022-07-25T11:55:43.148Z,1.63
2022-07-25T11:58:11.407Z,1.88
2022-07-25T12:00:43.223Z,2.30
2022-07-25T12:03:19.358Z,2.23
2022-07-25T12:05:47.386Z,2.08
2022-07-25T12:08:19.094Z,2.03
2022-07-25T12:10:54.942Z,2.13
2022-07-25T12:13:23.194Z,2.45
2022-07-25T12:15:50.431Z,1.70
2022-07-25T12:18:17.744Z,1.75
2022-07-25T12:20:45.205Z,1.52
2022-07-25T12:23:13.575Z,2.38
2022-07-25T12:25:42.343Z,1.80
2022-07-25T12:28:11.030Z,1.90
2022-07-25T12:30:39.493Z,1.52
2022-07-25T12:33:07.223Z,1.92
2022-07-25T12:35:34.647Z,1.58
2022-07-25T12:38:01.956Z,1.67
2022-07-25T12:40:29.331Z,1.77
2022-07-25T12:42:58.012Z,2.13
2022-07-25T12:45:25.303Z,2.10
2022-07-25T12:47:52.582Z,1.75
2022-07-25T12:50:19.895Z,1.45
2022-07-25T12:52:47.450Z,1.40
2022-07-25T12:55:16.246Z,1.30
2022-07-25T12:57:43.840Z,1.50
2022-07-25T13:00:12.987Z,1.40
2022-07-25T13:02:40.351Z,1.60
2022-07-25T13:05:07.968Z,1.87
2022-07-25T13:07:35.738Z,2.15
2022-07-25T13:10:03.782Z,2.10
2022-07-25T13:12:31.202Z,2.03
2022-07-25T13:14:58.542Z,2.08
2022-07-25T13:17:28.654Z,1.77
2022-07-25T13:19:56.346Z,1.80
2022-07-25T13:22:23.775Z,1.92
2022-07-25T13:24:51.422Z,1.52
2022-07-25T13:27:20.575Z,1.33
2022-07-25T13:29:50.425Z,1.40
2022-07-25T13:32:18.942Z,1.70
2022-07-25T13:34:46.355Z,1.67
2022-07-25T13:37:13.780Z,1.40
2022-07-25T13:39:42.329Z,1.70
2022-07-25T13:42:09.925Z,1.10
2022-07-25T13:44:37.346Z,1.40
2022-07-25T13:47:04.806Z,1.48
2022-07-25T13:49:32.722Z,1.27
2022-07-25T13:52:00.069Z,0.98
2022-07-25T13:54:27.368Z,1.10
2022-07-25T13:56:54.739Z,1.23
2022-07-25T13:59:22.189Z,1.10
2022-07-25T14:01:50.403Z,1.10
2022-07-25T14:04:18.024Z,1.50
2022-07-25T14:06:45.399Z,1.30
2022-07-25T14:09:12.761Z,1.45
2022-07-25T14:11:40.096Z,1.70
2022-07-25T14:14:07.417Z,1.45
2022-07-25T14:16:34.727Z,1.30
2022-07-25T14:19:02.510Z,1.23
2022-07-25T14:21:30.134Z,1.00
2022-07-25T14:23:57.461Z,0.80
2022-07-25T14:26:25.807Z,0.60
2022-07-25T14:28:53.200Z,1.00
2022-07-25T14:31:21.422Z,1.00
2022-07-25T14:33:48.960Z,0.77
2022-07-25T14:36:16.280Z,0.70
2022-07-25T14:38:43.874Z,0.75
2022-07-25T14:41:13.266Z,0.80
2022-07-25T14:43:41.050Z,0.80
2022-07-25T14:46:09.046Z,0.70
2022-07-25T14:48:37.425Z,1.02
2022-07-25T14:51:05.594Z,0.90
2022-07-25T14:53:33.070Z,0.80
2022-07-25T14:56:01.006Z,0.90
2022-07-25T14:58:28.436Z,1.15
2022-07-25T15:00:55.791Z,1.15
2022-07-25T15:03:23.453Z,0.90
2022-07-25T15:05:50.796Z,0.80
2022-07-25T15:08:18.141Z,1.07
2022-07-25T15:10:45.845Z,0.90
2022-07-25T15:13:30.594Z,0.98
2022-07-25T15:15:58.765Z,1.00
2022-07-25T15:18:26.251Z,0.80
2022-07-25T15:20:53.693Z,0.80
2022-07-25T15:23:21.278Z,0.90
2022-07-25T15:26:04.772Z,0.75
2022-07-25T15:28:37.278Z,0.90
2022-07-25T15:31:05.496Z,0.90
2022-07-25T15:33:33.495Z,1.03
2022-07-25T15:36:00.880Z,0.80
2022-07-25T15:38:29.155Z,1.30
2022-07-25T15:40:56.650Z,0.93
2022-07-25T15:43:24.170Z,0.93
2022-07-25T15:45:51.881Z,0.67
2022-07-25T15:48:19.302Z,1.23
2022-07-25T15:50:47.707Z,1.10
2022-07-25T15:53:15.268Z,1.10
2022-07-25T15:55:42.990Z,0.85
2022-07-25T15:58:10.894Z,0.60
2022-07-25T16:00:39.018Z,0.73
2022-07-25T16:03:07.179Z,0.60
2022-07-25T16:05:34.846Z,0.80
2022-07-25T16:08:02.338Z,1.10
2022-07-25T16:10:33.120Z,0.70
2022-07-25T16:13:00.759Z,0.90
2022-07-25T16:15:28.815Z,1.00
2022-07-25T16:18:01.771Z,1.02
2022-07-25T16:20:29.412Z,1.45
2022-07-25T16:22:57.796Z,1.37
2022-07-25T16:25:25.225Z,1.00
2022-07-25T16:27:53.002Z,1.20
2022-07-25T16:30:20.402Z,0.75
2022-07-25T16:32:47.725Z,1.08
2022-07-25T16:35:15.135Z,1.60
2022-07-25T16:37:42.557Z,0.82
2022-07-25T16:40:10.218Z,0.80
2022-07-25T16:42:37.893Z,0.82
2022-07-25T16:45:05.809Z,0.95
2022-07-25T16:47:33.036Z,1.10
2022-07-25T16:50:00.327Z,1.48
2022-07-25T16:52:27.665Z,1.02
2022-07-25T16:54:54.963Z,1.08
2022-07-25T16:57:25.397Z,1.17
2022-07-25T16:59:53.636Z,1.60
2022-07-25T17:02:26.198Z,0.90
2022-07-25T17:04:56.446Z,0.80
2022-07-25T17:07:23.881Z,1.30
2022-07-25T17:09:51.378Z,1.38
2022-07-25T17:12:19.015Z,1.37
2022-07-25T17:14:46.452Z,1.08
2022-07-25T17:17:14.015Z,1.45
2022-07-25T17:19:41.396Z,1.70
2022-07-25T17:22:09.156Z,1.40
2022-07-25T17:24:36.807Z,1.53
2022-07-25T17:27:04.680Z,1.60
2022-07-25T17:29:32.175Z,1.00
2022-07-25T17:31:59.413Z,1.73
2022-07-25T17:34:26.983Z,1.55
2022-07-25T17:36:54.836Z,0.90
2022-07-25T17:39:22.126Z,1.27
2022-07-25T17:41:49.676Z,1.13
2022-07-25T17:44:17.310Z,1.55
2022-07-25T17:46:45.054Z,0.93
2022-07-25T17:49:12.609Z,1.30
2022-07-25T17:51:40.529Z,0.88
2022-07-25T17:54:08.006Z,1.00
2022-07-25T17:56:35.554Z,1.63
2022-07-25T17:59:03.093Z,1.30
2022-07-25T18:01:30.482Z,0.90
2022-07-25T18:03:57.832Z,1.20
2022-07-25T18:06:29.391Z,1.38
2022-07-25T18:08:57.387Z,1.30
2022-07-25T18:11:24.738Z,1.25
2022-07-25T18:13:52.102Z,0.90
2022-07-25T18:16:19.624Z,0.88
2022-07-25T18:18:46.963Z,1.05
2022-07-25T18:21:14.766Z,1.02
2022-07-25T18:23:42.045Z,1.13
2022-07-25T18:26:10.072Z,1.03
2022-07-25T18:28:37.450Z,1.17
2022-07-25T18:31:05.638Z,1.27
2022-07-25T18:33:32.993Z,0.90
2022-07-25T18:36:05.484Z,1.60
2022-07-25T18:38:34.598Z,1.73
2022-07-25T18:41:27.650Z,1.30
2022-07-25T18:43:49.620Z,0.98
2022-07-25T18:46:17.210Z,1.30
2022-07-25T18:48:44.919Z,1.42
2022-07-25T18:51:12.443Z,1.47
2022-07-25T18:53:39.694Z,1.60
2022-07-25T18:56:07.198Z,1.20
2022-07-25T18:58:35.283Z,1.77
2022-07-25T19:01:03.061Z,1.42
2022-07-25T19:03:32.785Z,1.07
2022-07-25T19:06:03.454Z,1.70
2022-07-25T19:08:31.168Z,1.48
2022-07-25T19:10:58.516Z,1.50
2022-07-25T19:13:48.378Z,1.55
2022-07-25T19:16:13.532Z,1.80
2022-07-25T19:18:42.358Z,1.70
2022-07-25T19:21:09.753Z,1.63
2022-07-25T19:23:37.093Z,1.63
2022-07-25T19:26:04.592Z,1.50
2022-07-25T19:28:32.031Z,2.10
2022-07-25T19:30:59.423Z,1.23
2022-07-25T19:33:34.665Z,1.50
2022-07-25T19:36:04.088Z,1.75
2022-07-25T19:38:31.636Z,1.50
2022-07-25T19:40:59.131Z,1.60
2022-07-25T19:43:26.538Z,1.30
2022-07-25T19:45:54.077Z,1.50
2022-07-25T19:48:24.383Z,1.70
2022-07-25T19:50:52.227Z,1.77
2022-07-25T19:53:20.687Z,1.90
2022-07-25T19:55:50.449Z,1.98
2022-07-25T19:58:17.669Z,1.40
2022-07-25T20:00:45.027Z,1.52
2022-07-25T20:03:12.318Z,1.60
2022-07-25T20:05:41.775Z,1.63
2022-07-25T20:08:09.079Z,2.03
2022-07-25T20:10:36.335Z,2.13
2022-07-25T20:13:03.972Z,2.00
2022-07-25T20:15:31.242Z,2.05
2022-07-25T20:17:58.750Z,2.80
2022-07-25T20:20:26.357Z,2.25
2022-07-25T20:22:54.656Z,2.47
2022-07-25T20:25:21.955Z,2.15
2022-07-25T20:27:49.774Z,2.15
2022-07-25T20:30:17.721Z,1.90
2022-07-25T20:32:45.243Z,2.28
2022-07-25T20:35:12.570Z,1.95
2022-07-25T20:37:39.963Z,2.70
2022-07-25T20:40:07.732Z,2.33
2022-07-25T20:42:37.166Z,1.90
2022-07-25T20:45:05.280Z,2.15
2022-07-25T20:47:32.599Z,2.28
2022-07-25T20:49:59.971Z,2.03
2022-07-25T20:52:31.057Z,1.73
2022-07-25T20:54:58.369Z,2.10
2022-07-25T20:57:25.688Z,2.15
2022-07-25T20:59:53.127Z,2.22
2022-07-25T21:02:20.528Z,3.03
2022-07-25T21:04:48.573Z,2.78
2022-07-25T21:07:16.953Z,2.13
2022-07-25T21:09:44.379Z,2.22
2022-07-25T21:12:11.728Z,2.20
2022-07-25T21:14:39.021Z,2.38
2022-07-25T21:17:06.394Z,3.05
2022-07-25T21:19:33.776Z,2.37
2022-07-25T21:22:02.398Z,2.42
2022-07-25T21:24:29.754Z,2.60
2022-07-25T21:26:57.050Z,2.45
2022-07-25T21:29:24.366Z,3.13
2022-07-25T21:31:51.698Z,2.50
2022-07-25T21:34:21.658Z,2.50
2022-07-25T21:36:48.946Z,2.80
2022-07-25T21:39:16.696Z,3.38
2022-07-25T21:41:44.887Z,2.53
2022-07-25T21:44:14.068Z,2.57
2022-07-25T21:46:41.333Z,2.33
2022-07-25T21:49:41.994Z,3.28
2022-07-25T21:52:13.862Z,2.28
2022-07-25T21:54:42.430Z,2.58
2022-07-25T21:57:13.363Z,2.73
2022-07-25T21:59:44.771Z,2.85
2022-07-25T22:02:12.490Z,2.72
2022-07-25T22:04:39.869Z,3.28
2022-07-25T22:07:07.300Z,2.47
2022-07-25T22:09:34.676Z,2.63
2022-07-25T22:12:02.500Z,2.60
2022-07-25T22:14:29.781Z,2.80
2022-07-25T22:16:57.161Z,3.22
2022-07-25T22:19:24.746Z,2.58
2022-07-25T22:21:52.260Z,2.87
2022-07-25T22:24:19.539Z,3.00
2022-07-25T22:26:46.889Z,2.70
2022-07-25T22:29:14.214Z,3.08
2022-07-25T22:31:41.559Z,2.83
2022-07-25T22:34:09.484Z,2.90
2022-07-25T22:36:36.813Z,3.47
2022-07-25T22:39:05.050Z,2.13
2022-07-25T22:41:32.693Z,3.10
2022-07-25T22:44:00.326Z,3.05
2022-07-25T22:46:31.157Z,2.87
2022-07-25T22:48:59.298Z,2.78
2022-07-25T22:51:26.789Z,3.13
2022-07-25T22:53:54.587Z,3.70
2022-07-25T22:56:21.970Z,3.20
2022-07-25T22:58:49.548Z,2.50
2022-07-25T23:01:17.702Z,3.08
2022-07-25T23:03:45.321Z,2.78
2022-07-25T23:06:12.982Z,3.58
2022-07-25T23:08:40.288Z,3.67
2022-07-25T23:11:07.602Z,3.50
2022-07-25T23:13:35.582Z,3.60
2022-07-25T23:16:03.669Z,3.35
2022-07-25T23:18:31.947Z,2.97
2022-07-25T23:20:59.205Z,2.45
2022-07-25T23:23:26.637Z,3.10
2022-07-25T23:25:53.890Z,2.90
2022-07-25T23:28:21.241Z,3.30
2022-07-25T23:30:48.542Z,3.50
2022-07-25T23:33:15.840Z,2.95
2022-07-25T23:35:43.715Z,3.00
2022-07-25T23:38:11.056Z,2.72
2022-07-25T23:40:38.402Z,2.70
2022-07-25T23:43:05.712Z,3.45
2022-07-25T23:45:33.004Z,2.78
2022-07-25T23:48:00.941Z,2.83
2022-07-25T23:50:28.224Z,3.10
2022-07-25T23:52:55.475Z,2.67
2022-07-25T23:55:23.096Z,3.08
2022-07-25T23:57:50.311Z,3.10
